world map with BIO marked

BIO - Airport

This information may not be accurate or current and is not valid for navigation or flight planning. No warranty of fitness for any purpose is made or implied.

flag of Basque Countryflag of Spain

Donate via PayPal

Additional information is available on the NEW Great Circle Mapper

Location
City:  Bilbao, Basque Country, Spain
Name:Sondica
ICAO / IATA:LEBB / BIO

Details
Type:Airport (Aerodrome, Airfield)
Use:Public/Civil
Latitude:43°18'04"N (43.301097)
Longitude:2°54'38"W (-2.910607)
Datum:WGS 1984
Elevation:138 ft (42 m)
Runways:2
Longest:8530 × 148 ft (2600 × 45 m)

Time
Timezone:UTC+1 (DST+4)
Local Time:

Weather
METAR:LEBB  262130Z 09003KT CAVOK 15/14 Q1021 NOSIG
TAF:LEBB  261700Z 2618/2718 09007KT 9999 FEW045 TX27/2714Z TN12/2706Z PROB30 TEMPO 2711/2717 32010KT

Related Locations
Nearby:
Farthest:NZFT: 12278 mi / 19759 km
Flat Point, WGN, NZ

Find:

   beyond  
but within

Other Information
Maps:
Sources:

  


 


Great Circle Mapper   Great Circle Mapper
Great Circle Mapper FAQ   Great Circle Mapper FAQ
  Karl's Home Page
KLSē   KLSē Home
   GC on Facebook
Airlines of the World   Airlines of the World
Donate via PayPal


Copyright © 2004-2017, Karl L. Swartz. All rights reserved.
All trademarks mentioned herein belong to their respective owners.

Please see credits for attribution and copyright information.

Karl Swartz <karl@kls2.com>
  Powered by FreeBSD
Valid HTML 4.01!
Labeled with ICRA
hCard Microformat
Geo Microformat